SA3VCC-13 Weather Reports


Display with metric or nautical units.
time (UTC)temp
F
wind
direction
speed
MPH
gust
MPH
rain 1hr
in
rain 24hr
in
rain mn
in
humidity
%
barometer
mb
20221003153832 57 319 2.0 4.0 0.00 0.05 0.02 79 1014.1
20221003152829 58 323 3.0 9.0 0.00 0.08 0.02 79 1014.0
20221003151828 59 311 4.0 9.0 0.00 0.08 0.02 79 1013.9
20221003150825 59 304 3.0 5.0 0.00 0.08 0.02 78 1013.7
20221003145824 59 304 2.0 5.0 0.00 0.08 0.02 78 1013.6
20221003144822 60 313 2.0 5.0 0.00 0.08 0.02 77 1013.6
20221003143820 61 309 2.0 4.0 0.00 0.08 0.02 77 1013.6
20221003142818 61 299 2.0 4.0 0.00 0.08 0.02 77 1013.6
20221003141816 62 297 3.0 5.0 0.00 0.08 0.02 77 1013.5
20221003140813 62 294 3.0 7.0 0.00 0.10 0.02 78 1013.5
20221003135813 62 303 4.0 8.0 0.00 0.12 0.02 78 1013.5
20221003134810 63 306 4.0 8.0 0.00 0.13 0.02 78 1013.5
20221003133807 63 308 4.0 8.0 0.00 0.15 0.02 79 1013.5
20221003132805 63 297 5.0 8.0 0.00 0.17 0.02 80 1013.5
20221003131804 64 312 4.0 11.0 0.00 0.17 0.02 81 1013.5
20221003130801 63 299 5.0 7.0 0.00 0.17 0.02 82 1013.6
20221003125800 63 292 4.0 6.0 0.00 0.17 0.02 82 1013.6
20221003124757 63 298 4.0 7.0 0.00 0.17 0.02 82 1013.6
20221003123756 63 308 5.0 9.0 0.00 0.17 0.02 82 1013.6
20221003122753 64 292 4.0 6.0 0.00 0.17 0.02 85 1013.6
20221003121751 63 305 4.0 9.0 0.00 0.17 0.02 86 1013.5
20221003120750 63 306 4.0 6.0 0.00 0.17 0.02 87 1013.5
20221003115747 63 311 4.0 8.0 0.00 0.17 0.02 89 1013.5
20221003114745 62 299 4.0 7.0 0.00 0.17 0.02 90 1013.5
20221003113743 61 295 3.0 6.0 0.00 0.17 0.02 90 1013.5
20221003112741 61 308 6.0 11.0 0.00 0.17 0.02 95 1013.5
20221003111739 60 295 4.0 6.0 0.00 0.17 0.02 95 1013.5
20221003110737 59 295 3.0 6.0 0.00 0.17 0.02 97 1013.5
20221003105735 58 292 3.0 6.0 0.00 0.17 0.02 97 1013.5
20221003104733 58 288 2.0 5.0 0.00 0.17 0.02 96 1013.5
20221003103731 58 298 3.0 5.0 0.00 0.17 0.02 99 1013.4
20221003102729 58 307 3.0 6.0 0.00 0.17 0.02 100 1013.4
20221003101728 57 288 4.0 8.0 0.00 0.17 0.02 100 1013.3
20221003100727 55 294 3.0 6.0 0.00 0.17 0.02 100 1013.2
20221003095723 54 292 4.0 7.0 0.00 0.17 0.02 100 1013.3
20221003094721 52 288 1.0 3.0 0.00 0.17 0.02 100 1013.3
20221003093719 52 270 2.0 4.0 0.00 0.17 0.02 100 1013.3
20221003092717 51 270 2.0 4.0 0.01 0.17 0.02 100 1013.3
20221003091715 51 270 2.0 4.0 0.01 0.17 0.02 100 1013.3
20221003090713 50 270 2.0 4.0 0.01 0.17 0.02 100 1013.3
20221003085711 50 270 2.0 3.0 0.01 0.17 0.02 100 1013.3
20221003084710 49 270 2.0 6.0 0.01 0.17 0.02 100 1013.2
20221003083707 49 270 2.0 4.0 0.01 0.17 0.02 100 1013.2
20221003082705 48 255 2.0 4.0 0.01 0.17 0.02 100 1013.2
20221003081703 48 254 2.0 4.0 0.01 0.17 0.02 100 1013.2
20221003080702 48 258 2.0 4.0 0.01 0.17 0.02 100 1013.2
20221003075700 47 259 2.0 4.0 0.01 0.17 0.02 100 1013.1
20221003074657 47 262 4.0 6.0 0.01 0.17 0.02 100 1013.1
20221003073656 47 259 3.0 6.0 0.00 0.16 0.01 100 1013.0
20221003072653 46 257 3.0 6.0 0.00 0.16 0.01 100 1012.9
20221003071652 46 257 3.0 5.0 0.01 0.16 0.01 100 1012.8
20221003070650 45 254 3.0 4.0 0.01 0.16 0.01 100 1012.8
20221003065648 45 254 2.0 4.0 0.01 0.16 0.01 100 1012.7
20221003064645 45 254 2.0 4.0 0.01 0.16 0.01 100 1012.6
20221003063644 44 254 2.0 4.0 0.01 0.16 0.01 100 1012.6
20221003062642 44 249 2.0 4.0 0.01 0.16 0.01 100 1012.5
20221003061639 44 245 2.0 4.0 0.00 0.15 0.00 100 1012.5
20221003060637 44 245 2.0 3.0 0.00 0.15 0.00 100 1012.4
20221003055635 44 258 2.0 3.0 0.00 0.15 0.00 99 1012.4
20221003054634 44 259 2.0 3.0 0.00 0.15 0.00 99 1012.4
20221003053631 43 245 2.0 2.0 0.00 0.15 0.00 99 1012.4
20221003052629 43 240 2.0 3.0 0.00 0.15 0.00 99 1012.3
20221003051627 43 253 2.0 3.0 0.00 0.15 0.00 99 1012.4
20221003050625 43 254 2.0 3.0 0.00 0.15 0.00 99 1012.3
20221003045623 44 259 2.0 3.0 0.00 0.15 0.00 99 1012.2
20221003044621 44 258 2.0 3.0 0.00 0.15 0.00 99 1012.1
20221003043619 44 239 2.0 2.0 0.00 0.15 0.00 99 1012.1
20221003042617 44 270 1.0 2.0 0.00 0.15 0.00 99 1012.0
20221003041615 44 236 2.0 2.0 0.00 0.15 0.00 99 1011.9
20221003040613 44 234 2.0 2.0 0.00 0.15 0.00 99 1011.9
20221003035611 44 234 2.0 2.0 0.00 0.15 0.00 99 1011.8
20221003034609 44 236 2.0 2.0 0.00 0.15 0.00 99 1011.8
20221003033606 44 250 1.0 2.0 0.00 0.15 0.00 99 1011.8
20221003032605 44 237 1.0 2.0 0.00 0.15 0.00 99 1011.8
20221003031603 44 231 1.0 2.0 0.00 0.15 0.00 99 1011.7
20221003030600 44 255 2.0 3.0 0.00 0.15 0.00 99 1011.7
20221003025558 44 259 2.0 3.0 0.00 0.15 0.00 99 1011.6
20221003024557 44 270 2.0 4.0 0.00 0.15 0.00 98 1011.6
20221003023555 44 248 1.0 2.0 0.00 0.15 0.00 98 1011.6
20221003022553 44 241 1.0 2.0 0.00 0.15 0.00 98 1011.5
20221003021551 44 270 1.0 2.0 0.00 0.15 0.00 98 1011.4
20221003020549 44 244 1.0 2.0 0.00 0.15 0.00 98 1011.3
20221003015547 44 270 1.0 2.0 0.00 0.15 0.00 98 1011.3
20221003014545 44 291 2.0 4.0 0.00 0.15 0.00 98 1011.3
20221003013543 44 294 2.0 4.0 0.00 0.15 0.00 98 1011.3
20221003012541 44 299 2.0 3.0 0.00 0.15 0.00 98 1011.3
20221003011539 44 294 2.0 3.0 0.00 0.15 0.00 98 1011.2
20221003010537 44 294 2.0 3.0 0.00 0.15 0.00 98 1011.2
20221003005535 44 289 1.0 2.0 0.00 0.15 0.00 98 1011.2
20221003004533 44 292 1.0 2.0 0.00 0.15 0.00 98 1011.1
20221003003532 44 288 2.0 2.0 0.00 0.15 0.00 97 1011.1
20221003002529 44 295 2.0 2.0 0.00 0.15 0.00 97 1011.1
20221003001526 44 291 2.0 3.0 0.00 0.15 0.00 97 1011.0
20221003000527 44 300 2.0 2.0 0.00 0.15 0.00 97 1010.9
20221002235523 45 270 1.0 2.0 0.00 0.15 0.00 97 1010.9
20221002234522 45 302 1.0 2.0 0.00 0.15 0.00 97 1010.8
20221002233520 45 295 1.0 2.0 0.00 0.15 0.00 97 1010.7
20221002232517 45 295 1.0 2.0 0.00 0.15 0.00 97 1010.7
20221002231516 45 291 1.0 2.0 0.00 0.15 0.00 97 1010.7
20221002230514 45 293 1.0 2.0 0.00 0.15 0.00 97 1010.6
20221002225511 45 300 1.0 2.0 0.00 0.15 0.00 97 1010.5
20221002224509 46 293 2.0 2.0 0.00 0.15 0.00 96 1010.5
20221002223508 46 289 1.0 2.0 0.00 0.15 0.00 96 1010.3
20221002222506 46 317 1.0 2.0 0.00 0.15 0.00 96 1010.3
20221002221504 46 315 1.0 2.0 0.00 0.15 0.00 96 1010.2
20221002220001 47 318 1.0 2.0 0.00 0.15 0.15 96 1010.2
20221002214958 47 270 1.0 2.0 0.00 0.15 0.15 96 1010.1
20221002213956 47 330 1.0 3.0 0.00 0.15 0.15 96 1010.1
20221002212954 47 286 1.0 2.0 0.00 0.15 0.15 96 1010.0
20221002211953 48 270 1.0 2.0 0.00 0.15 0.15 96 1010.0
20221002210950 48 291 2.0 3.0 0.00 0.15 0.15 96 1009.9
20221002205948 48 300 2.0 3.0 0.00 0.15 0.15 96 1009.8
20221002204946 48 302 2.0 4.0 0.00 0.15 0.15 96 1009.8
20221002203944 48 270 1.0 2.0 0.00 0.15 0.15 96 1009.7
20221002202942 48 289 1.0 2.0 0.00 0.15 0.15 96 1009.6
20221002201940 48 299 2.0 3.0 0.00 0.15 0.15 96 1009.5
20221002200938 49 295 2.0 3.0 0.00 0.15 0.15 96 1009.5
20221002195936 49 291 1.0 2.0 0.00 0.15 0.15 96 1009.5
20221002194935 49 293 2.0 2.0 0.00 0.15 0.15 95 1009.3
20221002193933 49 295 1.0 2.0 0.00 0.15 0.15 95 1009.2
20221002192930 49 289 1.0 2.0 0.00 0.15 0.15 95 1009.2
20221002191928 49 304 2.0 2.0 0.00 0.15 0.15 95 1009.1
20221002190927 49 300 1.0 2.0 0.00 0.15 0.15 95 1009.0
20221002185924 49 321 1.0 2.0 0.00 0.15 0.15 95 1008.9
20221002184923 50 308 2.0 3.0 0.00 0.15 0.15 95 1008.8
20221002183920 50 304 1.0 2.0 0.00 0.15 0.15 95 1008.8
20221002182919 50 323 1.0 4.0 0.00 0.15 0.15 95 1008.7
20221002181916 50 298 2.0 4.0 0.00 0.15 0.15 94 1008.6
20221002180915 50 310 2.0 5.0 0.00 0.15 0.15 94 1008.6
20221002175912 50 293 2.0 4.0 0.00 0.15 0.15 94 1008.5
20221002174910 50 326 1.0 4.0 0.00 0.15 0.15 94 1008.5
20221002173909 50 302 2.0 4.0 0.00 0.15 0.15 94 1008.2
20221002172906 50 295 2.0 3.0 0.00 0.15 0.15 94 1008.2
20221002171905 51 302 2.0 4.0 0.00 0.15 0.15 93 1008.0
20221002170902 51 313 2.0 3.0 0.00 0.15 0.15 93 1007.9
20221002165901 51 315 2.0 3.0 0.00 0.15 0.15 93 1007.8
20221002164858 51 305 3.0 4.0 0.02 0.15 0.15 92 1007.7
20221002163856 51 308 3.0 6.0 0.02 0.15 0.15 92 1007.6
20221002162854 51 306 2.0 3.0 0.06 0.15 0.15 91 1007.5
20221002161852 52 293 1.0 2.0 0.06 0.15 0.15 91 1007.3
20221002160850 52 303 2.0 4.0 0.06 0.15 0.15 91 1007.1
20221002155849 53 304 2.0 4.0 0.06 0.15 0.15 90 1007.1
20221002154846 53 298 2.0 3.0 0.04 0.14 0.14 90 1007.1
20221002153844 53 306 2.0 4.0 0.03 0.13 0.13 90 1007.2